Arnold Bay, Vermont
Current Conditions -  °F | °C
As of 7:35 PM on Sunday 21 Dec 2014 (Local Time) from K6B0 Reporting Station
Overcast Overcast  
Wind Chill: -4°   Ceiling: 3200
Heat Index: -4°   Visibility: 10mi
Dew Point: -5°   Wind: 0mph
Humidity: 90%   Direction: NA
Pressure: 30.35"   Gusts: NA
Location:  44.0804°N, 73.3324°W
Report Text: K6B0 220035Z AUTO 00000KT 10SM OVC032 M04/M05 A3035 RMK AO2 T10361050
Loading
Personal Weather Stations






























Interactive Weather Map New forecast layout! Learn more

10-Day Weather Forecast

Advertisements
Track Severe Weather on mobile